sensor_id;sensor_type;location;lat;lon;timestamp;temperature;humidity
68274;SHT30;55104;47.356;19.448;2023-07-13T00:02:29;22.74;77.84
68274;SHT30;55104;47.356;19.448;2023-07-13T00:05:31;22.71;77.87
68274;SHT30;55104;47.356;19.448;2023-07-13T00:08:34;22.79;77.56
68274;SHT30;55104;47.356;19.448;2023-07-13T00:11:36;22.84;77.72
68274;SHT30;55104;47.356;19.448;2023-07-13T00:14:38;22.91;77.74
68274;SHT30;55104;47.356;19.448;2023-07-13T00:17:40;22.87;77.94
68274;SHT30;55104;47.356;19.448;2023-07-13T00:20:42;22.92;77.27
68274;SHT30;55104;47.356;19.448;2023-07-13T00:23:44;22.91;76.82
68274;SHT30;55104;47.356;19.448;2023-07-13T00:26:47;22.96;76.76
68274;SHT30;55104;47.356;19.448;2023-07-13T00:29:48;23.12;76.01
68274;SHT30;55104;47.356;19.448;2023-07-13T00:32:51;23.42;75.23
68274;SHT30;55104;47.356;19.448;2023-07-13T00:36:10;23.61;74.98
68274;SHT30;55104;47.356;19.448;2023-07-13T00:39:13;23.82;73.96
68274;SHT30;55104;47.356;19.448;2023-07-13T00:42:15;23.98;73.69
68274;SHT30;55104;47.356;19.448;2023-07-13T00:48:34;24.14;73.05
68274;SHT30;55104;47.356;19.448;2023-07-13T00:51:48;24.15;72.56
68274;SHT30;55104;47.356;19.448;2023-07-13T00:54:51;24.16;72.37
68274;SHT30;55104;47.356;19.448;2023-07-13T00:57:55;24.11;72.09
68274;SHT30;55104;47.356;19.448;2023-07-13T01:00:57;24.08;72.48
68274;SHT30;55104;47.356;19.448;2023-07-13T01:03:59;24.05;73.05
68274;SHT30;55104;47.356;19.448;2023-07-13T01:07:02;23.93;73.58
68274;SHT30;55104;47.356;19.448;2023-07-13T01:10:04;23.89;73.75
68274;SHT30;55104;47.356;19.448;2023-07-13T01:13:09;23.82;74.36
68274;SHT30;55104;47.356;19.448;2023-07-13T01:16:40;23.67;75.09
68274;SHT30;55104;47.356;19.448;2023-07-13T01:19:44;23.56;75.82
68274;SHT30;55104;47.356;19.448;2023-07-13T01:22:46;23.46;76.18
68274;SHT30;55104;47.356;19.448;2023-07-13T01:25:48;23.40;76.31
68274;SHT30;55104;47.356;19.448;2023-07-13T01:28:51;23.29;76.71
68274;SHT30;55104;47.356;19.448;2023-07-13T01:31:53;23.18;77.28
68274;SHT30;55104;47.356;19.448;2023-07-13T01:34:55;23.18;77.39
68274;SHT30;55104;47.356;19.448;2023-07-13T01:37:57;23.12;77.90
68274;SHT30;55104;47.356;19.448;2023-07-13T01:40:59;22.91;78.99
68274;SHT30;55104;47.356;19.448;2023-07-13T01:44:01;22.84;79.44
68274;SHT30;55104;47.356;19.448;2023-07-13T01:47:03;22.71;80.21
68274;SHT30;55104;47.356;19.448;2023-07-13T01:50:06;22.63;80.77
68274;SHT30;55104;47.356;19.448;2023-07-13T01:53:08;22.50;81.23
68274;SHT30;55104;47.356;19.448;2023-07-13T01:56:10;22.46;81.55
68274;SHT30;55104;47.356;19.448;2023-07-13T01:59:12;22.44;81.84
68274;SHT30;55104;47.356;19.448;2023-07-13T02:02:14;22.40;81.90
68274;SHT30;55104;47.356;19.448;2023-07-13T02:05:17;22.23;82.89
68274;SHT30;55104;47.356;19.448;2023-07-13T02:08:19;22.14;83.17
68274;SHT30;55104;47.356;19.448;2023-07-13T02:11:21;21.99;83.83
68274;SHT30;55104;47.356;19.448;2023-07-13T02:14:23;21.99;83.92
68274;SHT30;55104;47.356;19.448;2023-07-13T02:17:26;21.85;84.24
68274;SHT30;55104;47.356;19.448;2023-07-13T02:20:28;21.85;84.38
68274;SHT30;55104;47.356;19.448;2023-07-13T02:23:30;21.91;83.95
68274;SHT30;55104;47.356;19.448;2023-07-13T02:26:32;21.82;84.47
68274;SHT30;55104;47.356;19.448;2023-07-13T02:29:35;21.79;84.53
68274;SHT30;55104;47.356;19.448;2023-07-13T02:32:37;21.81;84.34
68274;SHT30;55104;47.356;19.448;2023-07-13T02:35:39;21.79;84.47
68274;SHT30;55104;47.356;19.448;2023-07-13T02:38:40;21.79;84.50
68274;SHT30;55104;47.356;19.448;2023-07-13T02:41:43;21.74;84.72
68274;SHT30;55104;47.356;19.448;2023-07-13T02:44:46;21.71;85.10
68274;SHT30;55104;47.356;19.448;2023-07-13T02:47:48;21.55;85.70
68274;SHT30;55104;47.356;19.448;2023-07-13T02:50:51;21.59;85.38
68274;SHT30;55104;47.356;19.448;2023-07-13T02:53:53;21.61;85.26
68274;SHT30;55104;47.356;19.448;2023-07-13T02:56:55;21.62;85.42
68274;SHT30;55104;47.356;19.448;2023-07-13T02:59:57;21.58;85.21
68274;SHT30;55104;47.356;19.448;2023-07-13T03:02:59;21.58;85.10
68274;SHT30;55104;47.356;19.448;2023-07-13T03:06:03;21.57;85.29
68274;SHT30;55104;47.356;19.448;2023-07-13T03:09:13;21.55;85.23
68274;SHT30;55104;47.356;19.448;2023-07-13T03:12:20;21.54;85.41
68274;SHT30;55104;47.356;19.448;2023-07-13T03:15:22;21.57;85.48
68274;SHT30;55104;47.356;19.448;2023-07-13T03:18:28;21.58;85.46
68274;SHT30;55104;47.356;19.448;2023-07-13T03:21:33;21.58;85.37
68274;SHT30;55104;47.356;19.448;2023-07-13T03:24:36;21.67;85.11
68274;SHT30;55104;47.356;19.448;2023-07-13T03:27:41;21.69;85.16
68274;SHT30;55104;47.356;19.448;2023-07-13T03:30:44;21.61;85.67
68274;SHT30;55104;47.356;19.448;2023-07-13T03:33:46;21.58;85.65
68274;SHT30;55104;47.356;19.448;2023-07-13T03:36:50;21.53;86.00
68274;SHT30;55104;47.356;19.448;2023-07-13T03:39:54;21.50;86.28
68274;SHT30;55104;47.356;19.448;2023-07-13T03:42:56;21.57;85.94
68274;SHT30;55104;47.356;19.448;2023-07-13T03:45:58;21.69;85.77
68274;SHT30;55104;47.356;19.448;2023-07-13T03:49:01;21.79;85.44
68274;SHT30;55104;47.356;19.448;2023-07-13T03:52:03;21.86;85.45
68274;SHT30;55104;47.356;19.448;2023-07-13T03:55:05;21.92;85.15
68274;SHT30;55104;47.356;19.448;2023-07-13T04:01:32;22.20;84.77
68274;SHT30;55104;47.356;19.448;2023-07-13T04:04:35;22.28;84.39
68274;SHT30;55104;47.356;19.448;2023-07-13T04:07:37;22.37;84.30
68274;SHT30;55104;47.356;19.448;2023-07-13T04:10:41;22.49;83.81
68274;SHT30;55104;47.356;19.448;2023-07-13T04:13:43;22.49;83.94
68274;SHT30;55104;47.356;19.448;2023-07-13T04:16:46;22.57;83.75
68274;SHT30;55104;47.356;19.448;2023-07-13T04:19:48;22.77;83.38
68274;SHT30;55104;47.356;19.448;2023-07-13T04:22:51;22.81;82.95
68274;SHT30;55104;47.356;19.448;2023-07-13T04:25:53;22.95;82.86
68274;SHT30;55104;47.356;19.448;2023-07-13T04:28:56;22.78;83.70
68274;SHT30;55104;47.356;19.448;2023-07-13T04:31:59;22.81;83.55
68274;SHT30;55104;47.356;19.448;2023-07-13T04:35:01;22.64;84.18
68274;SHT30;55104;47.356;19.448;2023-07-13T04:38:03;22.68;83.88
68274;SHT30;55104;47.356;19.448;2023-07-13T04:41:06;22.75;83.74
68274;SHT30;55104;47.356;19.448;2023-07-13T04:44:09;22.65;84.26
68274;SHT30;55104;47.356;19.448;2023-07-13T04:47:11;22.67;84.22
68274;SHT30;55104;47.356;19.448;2023-07-13T04:50:13;22.65;84.07
68274;SHT30;55104;47.356;19.448;2023-07-13T04:53:23;22.63;84.57
68274;SHT30;55104;47.356;19.448;2023-07-13T04:56:25;22.44;85.18
68274;SHT30;55104;47.356;19.448;2023-07-13T04:59:27;22.37;85.22
68274;SHT30;55104;47.356;19.448;2023-07-13T05:02:29;22.37;85.29
68274;SHT30;55104;47.356;19.448;2023-07-13T05:05:33;22.30;85.67
68274;SHT30;55104;47.356;19.448;2023-07-13T05:08:36;22.29;86.14
68274;SHT30;55104;47.356;19.448;2023-07-13T05:11:38;22.17;86.88
68274;SHT30;55104;47.356;19.448;2023-07-13T05:14:40;22.14;86.87
68274;SHT30;55104;47.356;19.448;2023-07-13T05:17:41;22.08;88.37
68274;SHT30;55104;47.356;19.448;2023-07-13T05:20:43;22.01;89.09
68274;SHT30;55104;47.356;19.448;2023-07-13T05:23:47;22.05;89.28
68274;SHT30;55104;47.356;19.448;2023-07-13T05:26:49;21.91;91.07
68274;SHT30;55104;47.356;19.448;2023-07-13T05:29:51;21.81;91.96
68274;SHT30;55104;47.356;19.448;2023-07-13T05:32:53;21.64;92.75
68274;SHT30;55104;47.356;19.448;2023-07-13T05:35:56;21.59;93.52
68274;SHT30;55104;47.356;19.448;2023-07-13T05:38:58;21.33;93.59
68274;SHT30;55104;47.356;19.448;2023-07-13T05:42:01;21.26;93.94
68274;SHT30;55104;47.356;19.448;2023-07-13T05:45:04;20.82;93.08
68274;SHT30;55104;47.356;19.448;2023-07-13T05:48:06;20.47;94.33
68274;SHT30;55104;47.356;19.448;2023-07-13T05:51:08;20.20;94.91
68274;SHT30;55104;47.356;19.448;2023-07-13T05:54:11;20.12;96.00
68274;SHT30;55104;47.356;19.448;2023-07-13T05:57:13;20.00;95.96
68274;SHT30;55104;47.356;19.448;2023-07-13T06:00:15;19.99;95.86
68274;SHT30;55104;47.356;19.448;2023-07-13T06:03:17;19.86;96.04
68274;SHT30;55104;47.356;19.448;2023-07-13T06:06:20;19.83;96.52
68274;SHT30;55104;47.356;19.448;2023-07-13T06:09:22;19.78;96.16
68274;SHT30;55104;47.356;19.448;2023-07-13T06:12:24;19.72;96.33
68274;SHT30;55104;47.356;19.448;2023-07-13T06:15:26;19.75;96.23
68274;SHT30;55104;47.356;19.448;2023-07-13T06:18:28;19.66;96.14
68274;SHT30;55104;47.356;19.448;2023-07-13T06:21:30;19.51;96.51
68274;SHT30;55104;47.356;19.448;2023-07-13T06:24:32;19.53;96.52
68274;SHT30;55104;47.356;19.448;2023-07-13T06:27:34;19.50;96.02
68274;SHT30;55104;47.356;19.448;2023-07-13T06:30:38;19.50;96.45
68274;SHT30;55104;47.356;19.448;2023-07-13T06:33:41;19.43;95.64
68274;SHT30;55104;47.356;19.448;2023-07-13T06:36:44;19.41;95.33
68274;SHT30;55104;47.356;19.448;2023-07-13T06:39:46;19.43;95.34
68274;SHT30;55104;47.356;19.448;2023-07-13T06:42:48;19.46;94.92
68274;SHT30;55104;47.356;19.448;2023-07-13T06:45:55;19.54;94.57
68274;SHT30;55104;47.356;19.448;2023-07-13T06:48:57;19.55;94.23
68274;SHT30;55104;47.356;19.448;2023-07-13T06:51:59;19.65;93.83
68274;SHT30;55104;47.356;19.448;2023-07-13T06:55:01;19.69;93.84
68274;SHT30;55104;47.356;19.448;2023-07-13T06:58:04;19.83;93.14
68274;SHT30;55104;47.356;19.448;2023-07-13T07:01:08;20.05;91.88
68274;SHT30;55104;47.356;19.448;2023-07-13T07:04:13;20.17;91.76
68274;SHT30;55104;47.356;19.448;2023-07-13T07:07:15;20.34;91.42
68274;SHT30;55104;47.356;19.448;2023-07-13T07:10:18;20.63;90.95
68274;SHT30;55104;47.356;19.448;2023-07-13T07:13:20;20.76;90.09
68274;SHT30;55104;47.356;19.448;2023-07-13T07:16:25;21.00;89.40
68274;SHT30;55104;47.356;19.448;2023-07-13T07:19:30;21.19;88.46
68274;SHT30;55104;47.356;19.448;2023-07-13T07:22:32;21.41;88.11
68274;SHT30;55104;47.356;19.448;2023-07-13T07:25:34;21.69;87.51
68274;SHT30;55104;47.356;19.448;2023-07-13T07:28:38;22.26;87.17
68274;SHT30;55104;47.356;19.448;2023-07-13T07:31:44;22.85;86.55
68274;SHT30;55104;47.356;19.448;2023-07-13T07:34:49;23.08;84.84
68274;SHT30;55104;47.356;19.448;2023-07-13T07:37:51;23.09;83.22
68274;SHT30;55104;47.356;19.448;2023-07-13T07:40:53;23.51;83.34
68274;SHT30;55104;47.356;19.448;2023-07-13T07:43:58;23.84;81.85
68274;SHT30;55104;47.356;19.448;2023-07-13T07:47:00;23.75;82.74
68274;SHT30;55104;47.356;19.448;2023-07-13T07:50:03;23.94;81.48
68274;SHT30;55104;47.356;19.448;2023-07-13T07:53:06;23.78;80.02
68274;SHT30;55104;47.356;19.448;2023-07-13T07:56:12;23.88;81.73
68274;SHT30;55104;47.356;19.448;2023-07-13T07:59:17;23.97;82.08
68274;SHT30;55104;47.356;19.448;2023-07-13T08:02:22;24.25;80.77
68274;SHT30;55104;47.356;19.448;2023-07-13T08:05:27;24.40;80.00
68274;SHT30;55104;47.356;19.448;2023-07-13T08:08:43;24.14;81.00
68274;SHT30;55104;47.356;19.448;2023-07-13T08:11:45;23.77;81.21
68274;SHT30;55104;47.356;19.448;2023-07-13T08:14:51;24.40;79.49
68274;SHT30;55104;47.356;19.448;2023-07-13T08:17:55;24.97;79.46
68274;SHT30;55104;47.356;19.448;2023-07-13T08:21:03;24.91;78.47
68274;SHT30;55104;47.356;19.448;2023-07-13T08:24:06;24.95;78.18
68274;SHT30;55104;47.356;19.448;2023-07-13T08:27:09;24.74;78.38
68274;SHT30;55104;47.356;19.448;2023-07-13T08:30:13;24.56;78.14
68274;SHT30;55104;47.356;19.448;2023-07-13T08:33:16;24.46;76.94
68274;SHT30;55104;47.356;19.448;2023-07-13T08:36:18;24.99;77.50
68274;SHT30;55104;47.356;19.448;2023-07-13T08:39:20;25.24;75.91
68274;SHT30;55104;47.356;19.448;2023-07-13T08:45:43;25.38;75.54
68274;SHT30;55104;47.356;19.448;2023-07-13T08:52:00;25.88;75.77
68274;SHT30;55104;47.356;19.448;2023-07-13T08:55:24;26.13;73.57
68274;SHT30;55104;47.356;19.448;2023-07-13T08:58:28;26.38;73.85
68274;SHT30;55104;47.356;19.448;2023-07-13T09:02:00;26.55;73.74
68274;SHT30;55104;47.356;19.448;2023-07-13T09:05:05;26.60;71.40
68274;SHT30;55104;47.356;19.448;2023-07-13T09:17:49;26.68;68.04
68274;SHT30;55104;47.356;19.448;2023-07-13T09:21:38;27.18;68.31
68274;SHT30;55104;47.356;19.448;2023-07-13T09:27:49;27.35;68.36
68274;SHT30;55104;47.356;19.448;2023-07-13T09:34:12;27.35;65.83
68274;SHT30;55104;47.356;19.448;2023-07-13T09:37:15;27.37;64.60
68274;SHT30;55104;47.356;19.448;2023-07-13T09:40:24;27.62;64.32
68274;SHT30;55104;47.356;19.448;2023-07-13T09:43:27;27.85;65.55
68274;SHT30;55104;47.356;19.448;2023-07-13T09:46:30;27.97;65.13
68274;SHT30;55104;47.356;19.448;2023-07-13T09:49:36;27.97;64.95
68274;SHT30;55104;47.356;19.448;2023-07-13T09:52:44;28.55;65.40
68274;SHT30;55104;47.356;19.448;2023-07-13T09:55:47;28.38;64.55
68274;SHT30;55104;47.356;19.448;2023-07-13T09:58:54;28.52;64.33
68274;SHT30;55104;47.356;19.448;2023-07-13T10:01:56;28.20;64.41
68274;SHT30;55104;47.356;19.448;2023-07-13T10:05:05;28.31;64.48
68274;SHT30;55104;47.356;19.448;2023-07-13T10:08:27;28.68;64.41
68274;SHT30;55104;47.356;19.448;2023-07-13T10:11:30;28.90;62.98
68274;SHT30;55104;47.356;19.448;2023-07-13T10:14:32;29.07;61.18
68274;SHT30;55104;47.356;19.448;2023-07-13T10:17:34;28.56;61.59
68274;SHT30;55104;47.356;19.448;2023-07-13T10:20:37;28.84;61.34
68274;SHT30;55104;47.356;19.448;2023-07-13T10:23:40;29.11;59.86
68274;SHT30;55104;47.356;19.448;2023-07-13T10:26:50;29.35;60.69
68274;SHT30;55104;47.356;19.448;2023-07-13T10:30:00;29.16;60.72
68274;SHT30;55104;47.356;19.448;2023-07-13T10:33:10;28.93;60.50
68274;SHT30;55104;47.356;19.448;2023-07-13T10:39:22;28.84;60.02
68274;SHT30;55104;47.356;19.448;2023-07-13T10:42:32;28.80;60.73
68274;SHT30;55104;47.356;19.448;2023-07-13T10:45:35;28.76;61.45
68274;SHT30;55104;47.356;19.448;2023-07-13T10:48:40;28.73;60.27
68274;SHT30;55104;47.356;19.448;2023-07-13T10:51:43;28.75;61.57
68274;SHT30;55104;47.356;19.448;2023-07-13T10:54:46;28.89;59.87
68274;SHT30;55104;47.356;19.448;2023-07-13T10:57:51;29.08;59.59
68274;SHT30;55104;47.356;19.448;2023-07-13T11:04:12;29.08;59.47
68274;SHT30;55104;47.356;19.448;2023-07-13T11:07:24;29.04;60.22
68274;SHT30;55104;47.356;19.448;2023-07-13T11:10:50;29.51;61.03
68274;SHT30;55104;47.356;19.448;2023-07-13T11:16:54;29.39;60.66
68274;SHT30;55104;47.356;19.448;2023-07-13T11:20:31;29.30;59.34
68274;SHT30;55104;47.356;19.448;2023-07-13T11:23:41;29.28;58.93
68274;SHT30;55104;47.356;19.448;2023-07-13T11:29:49;29.23;59.58
68274;SHT30;55104;47.356;19.448;2023-07-13T11:33:10;29.44;58.88
68274;SHT30;55104;47.356;19.448;2023-07-13T11:36:16;29.33;58.15
68274;SHT30;55104;47.356;19.448;2023-07-13T11:39:29;28.83;57.86
68274;SHT30;55104;47.356;19.448;2023-07-13T11:42:32;28.88;59.28
68274;SHT30;55104;47.356;19.448;2023-07-13T11:45:34;28.93;56.55
68274;SHT30;55104;47.356;19.448;2023-07-13T11:48:49;29.13;57.04
68274;SHT30;55104;47.356;19.448;2023-07-13T11:51:53;29.00;56.92
68274;SHT30;55104;47.356;19.448;2023-07-13T11:55:00;29.21;57.64
68274;SHT30;55104;47.356;19.448;2023-07-13T11:58:04;29.14;58.15
68274;SHT30;55104;47.356;19.448;2023-07-13T12:01:17;29.52;53.52
68274;SHT30;55104;47.356;19.448;2023-07-13T12:04:24;29.62;56.32
68274;SHT30;55104;47.356;19.448;2023-07-13T12:07:29;29.69;54.76
68274;SHT30;55104;47.356;19.448;2023-07-13T12:10:32;29.78;56.62
68274;SHT30;55104;47.356;19.448;2023-07-13T12:13:37;29.83;54.04
68274;SHT30;55104;47.356;19.448;2023-07-13T12:16:40;29.69;53.50
68274;SHT30;55104;47.356;19.448;2023-07-13T12:19:44;30.21;53.37
68274;SHT30;55104;47.356;19.448;2023-07-13T12:22:49;30.21;52.43
68274;SHT30;55104;47.356;19.448;2023-07-13T12:25:52;30.09;51.50
68274;SHT30;55104;47.356;19.448;2023-07-13T12:28:55;29.28;51.94
68274;SHT30;55104;47.356;19.448;2023-07-13T12:31:59;29.61;54.26
68274;SHT30;55104;47.356;19.448;2023-07-13T12:35:14;29.47;54.98
68274;SHT30;55104;47.356;19.448;2023-07-13T12:38:17;29.50;55.34
68274;SHT30;55104;47.356;19.448;2023-07-13T12:41:19;29.73;53.75
68274;SHT30;55104;47.356;19.448;2023-07-13T12:44:30;30.07;54.14
68274;SHT30;55104;47.356;19.448;2023-07-13T12:47:40;29.47;51.86
68274;SHT30;55104;47.356;19.448;2023-07-13T12:50:47;29.80;52.70
68274;SHT30;55104;47.356;19.448;2023-07-13T12:54:05;30.18;53.49
68274;SHT30;55104;47.356;19.448;2023-07-13T12:57:16;30.30;53.29
68274;SHT30;55104;47.356;19.448;2023-07-13T13:00:29;30.81;51.63
68274;SHT30;55104;47.356;19.448;2023-07-13T13:03:37;30.35;51.76
68274;SHT30;55104;47.356;19.448;2023-07-13T13:06:40;30.12;52.43
68274;SHT30;55104;47.356;19.448;2023-07-13T13:09:44;30.16;50.76
68274;SHT30;55104;47.356;19.448;2023-07-13T13:12:46;29.88;52.13
68274;SHT30;55104;47.356;19.448;2023-07-13T13:15:48;30.24;53.06
68274;SHT30;55104;47.356;19.448;2023-07-13T13:18:52;30.18;52.21
68274;SHT30;55104;47.356;19.448;2023-07-13T13:21:56;30.16;52.76
68274;SHT30;55104;47.356;19.448;2023-07-13T13:24:59;29.69;51.84
68274;SHT30;55104;47.356;19.448;2023-07-13T13:28:02;29.62;54.12
68274;SHT30;55104;47.356;19.448;2023-07-13T13:31:04;29.63;53.78
68274;SHT30;55104;47.356;19.448;2023-07-13T13:34:17;30.10;53.73
68274;SHT30;55104;47.356;19.448;2023-07-13T13:37:23;30.12;52.36
68274;SHT30;55104;47.356;19.448;2023-07-13T13:40:27;29.76;53.41
68274;SHT30;55104;47.356;19.448;2023-07-13T13:43:29;30.16;51.68
68274;SHT30;55104;47.356;19.448;2023-07-13T13:46:31;30.24;53.30
68274;SHT30;55104;47.356;19.448;2023-07-13T13:49:33;29.90;53.63
68274;SHT30;55104;47.356;19.448;2023-07-13T13:52:38;29.59;53.82
68274;SHT30;55104;47.356;19.448;2023-07-13T13:55:40;29.38;54.16
68274;SHT30;55104;47.356;19.448;2023-07-13T13:58:43;29.20;54.40
68274;SHT30;55104;47.356;19.448;2023-07-13T14:01:47;29.10;55.52
68274;SHT30;55104;47.356;19.448;2023-07-13T14:05:02;29.11;56.62
68274;SHT30;55104;47.356;19.448;2023-07-13T14:08:08;29.07;54.68
68274;SHT30;55104;47.356;19.448;2023-07-13T14:11:14;29.18;54.91
68274;SHT30;55104;47.356;19.448;2023-07-13T14:14:20;29.11;56.05
68274;SHT30;55104;47.356;19.448;2023-07-13T14:17:25;29.04;56.52
68274;SHT30;55104;47.356;19.448;2023-07-13T14:20:28;29.23;56.90
68274;SHT30;55104;47.356;19.448;2023-07-13T14:23:31;29.45;56.49
68274;SHT30;55104;47.356;19.448;2023-07-13T14:26:37;29.54;56.68
68274;SHT30;55104;47.356;19.448;2023-07-13T14:29:40;29.37;55.44
68274;SHT30;55104;47.356;19.448;2023-07-13T14:32:43;29.04;55.49
68274;SHT30;55104;47.356;19.448;2023-07-13T14:35:46;29.25;55.21
68274;SHT30;55104;47.356;19.448;2023-07-13T14:38:51;29.18;55.33
68274;SHT30;55104;47.356;19.448;2023-07-13T14:41:56;29.08;55.07
68274;SHT30;55104;47.356;19.448;2023-07-13T14:44:58;29.00;55.55
68274;SHT30;55104;47.356;19.448;2023-07-13T14:48:01;29.03;55.31
68274;SHT30;55104;47.356;19.448;2023-07-13T14:51:03;29.06;54.99
68274;SHT30;55104;47.356;19.448;2023-07-13T14:54:08;28.83;55.87
68274;SHT30;55104;47.356;19.448;2023-07-13T14:57:16;28.75;56.68
68274;SHT30;55104;47.356;19.448;2023-07-13T15:00:20;28.59;57.52
68274;SHT30;55104;47.356;19.448;2023-07-13T15:03:24;28.61;57.10
68274;SHT30;55104;47.356;19.448;2023-07-13T15:06:27;28.42;57.56
68274;SHT30;55104;47.356;19.448;2023-07-13T15:09:30;28.44;57.55
68274;SHT30;55104;47.356;19.448;2023-07-13T15:12:32;28.20;58.47
68274;SHT30;55104;47.356;19.448;2023-07-13T15:15:36;28.14;58.83
68274;SHT30;55104;47.356;19.448;2023-07-13T15:18:39;27.94;58.81
68274;SHT30;55104;47.356;19.448;2023-07-13T15:21:42;27.85;59.70
68274;SHT30;55104;47.356;19.448;2023-07-13T15:24:44;27.85;59.80
68274;SHT30;55104;47.356;19.448;2023-07-13T15:27:46;27.82;59.51
68274;SHT30;55104;47.356;19.448;2023-07-13T15:30:49;27.61;59.95
68274;SHT30;55104;47.356;19.448;2023-07-13T15:33:53;27.56;60.64
68274;SHT30;55104;47.356;19.448;2023-07-13T15:36:56;27.48;61.26
68274;SHT30;55104;47.356;19.448;2023-07-13T15:39:58;27.45;61.24
68274;SHT30;55104;47.356;19.448;2023-07-13T15:43:00;27.35;61.19
68274;SHT30;55104;47.356;19.448;2023-07-13T15:46:02;27.35;62.65
68274;SHT30;55104;47.356;19.448;2023-07-13T15:49:09;27.31;62.08
68274;SHT30;55104;47.356;19.448;2023-07-13T15:52:18;27.23;61.51
68274;SHT30;55104;47.356;19.448;2023-07-13T15:55:21;27.14;62.36
68274;SHT30;55104;47.356;19.448;2023-07-13T15:58:24;27.12;62.40
68274;SHT30;55104;47.356;19.448;2023-07-13T16:01:32;27.04;63.00
68274;SHT30;55104;47.356;19.448;2023-07-13T16:04:35;26.90;63.45
68274;SHT30;55104;47.356;19.448;2023-07-13T16:07:37;26.86;63.64
68274;SHT30;55104;47.356;19.448;2023-07-13T16:10:40;26.84;63.85
68274;SHT30;55104;47.356;19.448;2023-07-13T16:13:43;26.84;64.79
68274;SHT30;55104;47.356;19.448;2023-07-13T16:16:47;26.76;64.42
68274;SHT30;55104;47.356;19.448;2023-07-13T16:19:52;26.76;64.17
68274;SHT30;55104;47.356;19.448;2023-07-13T16:22:58;26.66;64.28
68274;SHT30;55104;47.356;19.448;2023-07-13T16:26:00;26.70;65.03
68274;SHT30;55104;47.356;19.448;2023-07-13T16:29:02;26.69;65.11
68274;SHT30;55104;47.356;19.448;2023-07-13T16:32:12;26.55;65.23
68274;SHT30;55104;47.356;19.448;2023-07-13T16:35:23;26.49;65.49
68274;SHT30;55104;47.356;19.448;2023-07-13T16:38:25;26.49;65.48
68274;SHT30;55104;47.356;19.448;2023-07-13T16:41:30;26.45;65.50
68274;SHT30;55104;47.356;19.448;2023-07-13T16:44:32;26.41;66.03
68274;SHT30;55104;47.356;19.448;2023-07-13T16:47:35;26.36;65.97
68274;SHT30;55104;47.356;19.448;2023-07-13T16:50:38;26.41;66.10
68274;SHT30;55104;47.356;19.448;2023-07-13T16:53:42;26.22;66.45
68274;SHT30;55104;47.356;19.448;2023-07-13T16:56:47;26.14;67.37
68274;SHT30;55104;47.356;19.448;2023-07-13T16:59:52;26.04;68.29
68274;SHT30;55104;47.356;19.448;2023-07-13T17:02:59;25.98;69.05
68274;SHT30;55104;47.356;19.448;2023-07-13T17:06:20;25.97;68.61
68274;SHT30;55104;47.356;19.448;2023-07-13T17:09:25;25.87;69.22
68274;SHT30;55104;47.356;19.448;2023-07-13T17:12:28;25.71;69.35
68274;SHT30;55104;47.356;19.448;2023-07-13T17:15:32;25.65;70.00
68274;SHT30;55104;47.356;19.448;2023-07-13T17:18:36;25.65;70.95
68274;SHT30;55104;47.356;19.448;2023-07-13T17:21:39;25.54;71.44
68274;SHT30;55104;47.356;19.448;2023-07-13T17:24:41;25.46;73.03
68274;SHT30;55104;47.356;19.448;2023-07-13T17:27:45;25.36;73.55
68274;SHT30;55104;47.356;19.448;2023-07-13T17:30:50;25.29;72.56
68274;SHT30;55104;47.356;19.448;2023-07-13T17:33:53;25.22;74.99
68274;SHT30;55104;47.356;19.448;2023-07-13T17:36:57;25.15;75.64
68274;SHT30;55104;47.356;19.448;2023-07-13T17:40:03;25.04;76.13
68274;SHT30;55104;47.356;19.448;2023-07-13T17:43:08;24.94;77.06
68274;SHT30;55104;47.356;19.448;2023-07-13T17:46:30;24.84;77.07
68274;SHT30;55104;47.356;19.448;2023-07-13T17:49:33;24.76;77.47
68274;SHT30;55104;47.356;19.448;2023-07-13T17:52:35;24.71;78.10
68274;SHT30;55104;47.356;19.448;2023-07-13T17:55:37;24.63;78.15
68274;SHT30;55104;47.356;19.448;2023-07-13T17:58:40;24.56;78.52
68274;SHT30;55104;47.356;19.448;2023-07-13T18:01:45;24.50;79.19
68274;SHT30;55104;47.356;19.448;2023-07-13T18:04:48;24.42;78.11
68274;SHT30;55104;47.356;19.448;2023-07-13T18:07:51;24.37;79.06
68274;SHT30;55104;47.356;19.448;2023-07-13T18:10:56;24.32;79.63
68274;SHT30;55104;47.356;19.448;2023-07-13T18:13:59;24.22;80.20
68274;SHT30;55104;47.356;19.448;2023-07-13T18:17:01;24.22;81.18
68274;SHT30;55104;47.356;19.448;2023-07-13T18:20:04;24.16;80.41
68274;SHT30;55104;47.356;19.448;2023-07-13T18:23:22;24.09;80.27
68274;SHT30;55104;47.356;19.448;2023-07-13T18:26:25;24.02;80.28
68274;SHT30;55104;47.356;19.448;2023-07-13T18:29:28;24.04;80.53
68274;SHT30;55104;47.356;19.448;2023-07-13T18:32:30;24.02;80.37
68274;SHT30;55104;47.356;19.448;2023-07-13T18:35:33;24.00;80.46
68274;SHT30;55104;47.356;19.448;2023-07-13T18:38:36;23.93;81.11
68274;SHT30;55104;47.356;19.448;2023-07-13T18:41:39;23.93;81.50
68274;SHT30;55104;47.356;19.448;2023-07-13T18:44:41;23.87;81.32
68274;SHT30;55104;47.356;19.448;2023-07-13T18:47:45;23.81;80.56
68274;SHT30;55104;47.356;19.448;2023-07-13T18:50:48;23.78;80.17
68274;SHT30;55104;47.356;19.448;2023-07-13T18:53:50;23.75;80.90
68274;SHT30;55104;47.356;19.448;2023-07-13T18:56:52;23.73;81.15
68274;SHT30;55104;47.356;19.448;2023-07-13T18:59:54;23.64;81.65
68274;SHT30;55104;47.356;19.448;2023-07-13T19:02:58;23.59;81.80
68274;SHT30;55104;47.356;19.448;2023-07-13T19:06:02;23.59;81.90
68274;SHT30;55104;47.356;19.448;2023-07-13T19:09:09;23.57;81.86
68274;SHT30;55104;47.356;19.448;2023-07-13T19:12:17;23.49;82.39
68274;SHT30;55104;47.356;19.448;2023-07-13T19:15:22;23.53;82.47
68274;SHT30;55104;47.356;19.448;2023-07-13T19:18:26;23.53;82.33
68274;SHT30;55104;47.356;19.448;2023-07-13T19:21:35;23.38;83.24
68274;SHT30;55104;47.356;19.448;2023-07-13T19:24:41;23.32;83.47
68274;SHT30;55104;47.356;19.448;2023-07-13T19:27:43;23.27;83.86
68274;SHT30;55104;47.356;19.448;2023-07-13T19:30:45;23.19;84.05
68274;SHT30;55104;47.356;19.448;2023-07-13T19:33:48;23.16;84.27
68274;SHT30;55104;47.356;19.448;2023-07-13T19:37:03;23.20;84.13
68274;SHT30;55104;47.356;19.448;2023-07-13T19:40:18;23.15;84.51
68274;SHT30;55104;47.356;19.448;2023-07-13T19:43:21;23.18;84.13
68274;SHT30;55104;47.356;19.448;2023-07-13T19:49:30;23.04;84.28
68274;SHT30;55104;47.356;19.448;2023-07-13T19:52:33;22.99;84.67